Time;durP1;ratioP1;P1;durP2;ratioP2;P2;SDS_P1;SDS_P2;PMS_P1;PMS_P2;Temp;Humidity;BMP_temperature;BMP_pressure;BME280_temperature;BME280_humidity;BME280_pressure;Samples;Min_cycle;Max_cycle;Signal;HPM_P1;HPM_P2
2022/01/24 00:00:23;;;;;;;8.09;7.30;;;;;;;-3.12;88.10;101322.53;469110;112;922375;-72
2022/01/24 00:01:26;;;;;;;6.78;6.18;;;;;;;-3.11;88.10;101321.57;468127;111;930571;-72
2022/01/24 00:02:30;;;;;;;5.85;5.34;;;;;;;-3.10;88.12;101315.28;466936;111;922985;-72
2022/01/24 00:03:34;;;;;;;6.58;5.93;;;;;;;-3.10;88.11;101321.47;466551;112;923071;-73
2022/01/24 00:04:38;;;;;;;6.17;5.62;;;;;;;-3.07;88.15;101313.23;467451;112;922537;-72
2022/01/24 00:05:42;;;;;;;6.02;5.48;;;;;;;-3.04;88.20;101317.52;467160;112;922553;-72
2022/01/24 00:06:45;;;;;;;5.95;5.21;;;;;;;-3.01;88.26;101320.80;467060;112;930743;-74
2022/01/24 00:07:48;;;;;;;5.96;5.29;;;;;;;-2.98;88.27;101320.56;467179;111;930472;-72
2022/01/24 00:08:51;;;;;;;6.14;5.65;;;;;;;-2.96;88.25;101320.47;466769;111;922580;-73
2022/01/24 00:09:59;;;;;;;6.56;5.96;;;;;;;-2.96;88.22;101315.13;466852;111;922765;-73
2022/01/24 00:11:06;;;;;;;5.88;5.35;;;;;;;-2.95;88.22;101317.70;466191;111;922500;-72
2022/01/24 00:12:16;;;;;;;5.68;5.17;;;;;;;-2.96;88.20;101315.98;467417;112;923436;-73
2022/01/24 00:17:05;;;;;;;6.54;5.88;;;;;;;-3.02;87.99;101316.42;467387;112;922557;-73
2022/01/24 00:18:12;;;;;;;5.64;5.16;;;;;;;-3.04;88.01;101318.37;467123;111;922637;-74
2022/01/24 00:27:03;;;;;;;6.81;6.04;;;;;;;-3.18;88.12;101305.15;466859;112;922555;-72
2022/01/24 00:28:06;;;;;;;6.55;5.94;;;;;;;-3.15;88.22;101302.28;466737;111;923035;-72
2022/01/24 00:29:09;;;;;;;7.04;6.38;;;;;;;-3.14;88.24;101308.47;467499;112;930472;-72
2022/01/24 00:30:15;;;;;;;6.30;5.81;;;;;;;-3.14;88.22;101311.14;466634;111;922668;-72
2022/01/24 00:31:18;;;;;;;6.57;5.97;;;;;;;-3.15;88.15;101307.61;466333;111;922571;-73
2022/01/24 00:32:22;;;;;;;6.41;5.81;;;;;;;-3.15;88.17;101310.28;466062;112;922975;-73
2022/01/24 00:33:25;;;;;;;7.36;6.12;;;;;;;-3.15;88.14;101318.28;467313;112;922694;-73
2022/01/24 00:34:29;;;;;;;6.04;5.47;;;;;;;-3.14;88.22;101311.96;466753;111;922887;-74
2022/01/24 00:35:32;;;;;;;6.77;6.09;;;;;;;-3.13;88.12;101313.67;466906;111;922695;-74
2022/01/24 00:36:35;;;;;;;6.39;5.79;;;;;;;-3.13;88.17;101304.81;467203;112;922742;-73
2022/01/24 00:37:38;;;;;;;7.13;6.53;;;;;;;-3.12;88.15;101310.05;467734;112;922559;-72
2022/01/24 00:38:41;;;;;;;6.75;6.12;;;;;;;-3.11;88.14;101309.09;466884;111;922678;-74
2022/01/24 00:39:45;;;;;;;6.66;6.00;;;;;;;-3.11;88.12;101301.09;467322;111;930628;-73
2022/01/24 00:40:49;;;;;;;6.99;6.33;;;;;;;-3.11;88.03;101308.23;468069;112;922561;-73
2022/01/24 00:42:16;;;;;;;7.02;6.37;;;;;;;-3.12;88.01;101301.19;466900;112;922658;-73
2022/01/24 00:43:31;;;;;;;6.35;5.74;;;;;;;-3.11;88.03;101295.75;466084;112;930637;-73
2022/01/24 00:46:05;;;;;;;6.09;5.54;;;;;;;-3.10;87.99;101302.80;468250;111;922945;-73
2022/01/24 00:47:16;;;;;;;6.28;5.68;;;;;;;-3.10;87.99;101305.47;467330;112;922607;-72
2022/01/24 00:55:42;;;;;;;6.48;5.94;;;;;;;-3.10;87.93;101308.13;467516;111;922584;-72
2022/01/24 00:56:46;;;;;;;6.76;6.16;;;;;;;-3.12;87.86;101307.38;466713;112;922563;-73
2022/01/24 00:57:49;;;;;;;6.53;5.93;;;;;;;-3.16;87.85;101311.23;466942;112;922614;-73
2022/01/24 00:58:52;;;;;;;6.63;6.03;;;;;;;-3.19;87.83;101303.44;466603;111;922782;-73
2022/01/24 00:59:55;;;;;;;7.87;7.03;;;;;;;-3.20;87.82;101314.23;467630;111;922676;-73
2022/01/24 01:00:59;;;;;;;7.46;6.66;;;;;;;-3.23;87.69;101314.44;467462;112;930455;-72
2022/01/24 01:02:03;;;;;;;6.52;5.92;;;;;;;-3.24;87.73;101310.06;467868;112;922594;-73
2022/01/24 01:03:07;;;;;;;7.21;6.61;;;;;;;-3.25;87.77;101317.20;467297;111;930545;-72
2022/01/24 01:04:10;;;;;;;6.53;5.91;;;;;;;-3.24;87.81;101307.39;466618;112;930470;-72
2022/01/24 01:05:36;;;;;;;11.04;9.93;;;;;;;-3.24;87.85;101308.25;467079;112;931035;-73
2022/01/24 01:06:25;;;;;;;7.52;6.81;;;;;;;-3.24;87.74;101305.58;465305;112;922960;-72
2022/01/24 01:07:52;;;;;;;6.79;6.19;;;;;;;-3.26;87.72;101307.52;467410;111;922686;-72
2022/01/24 01:18:18;;;;;;;5.75;5.20;;;;;;;-3.26;87.81;101318.19;452486;117;922753;-73
2022/01/24 01:19:17;;;;;;;6.72;6.13;;;;;;;-3.28;87.88;101320.10;449856;116;923039;-73
2022/01/24 01:20:25;;;;;;;11.83;6.17;;;;;;;-3.28;87.91;101330.77;451224;115;922663;-73
2022/01/24 01:21:25;;;;;;;8.59;6.03;;;;;;;-3.29;87.86;101320.20;453472;115;923307;-72
2022/01/24 01:22:29;;;;;;;6.37;5.77;;;;;;;-3.29;87.86;101321.05;449211;116;922559;-73
2022/01/24 01:23:34;;;;;;;7.19;6.51;;;;;;;-3.30;87.92;101323.82;447776;116;922697;-73
2022/01/24 01:24:43;;;;;;;7.01;6.10;;;;;;;-3.31;87.82;101320.33;447624;118;923071;-73
2022/01/24 01:25:43;;;;;;;6.80;6.19;;;;;;;-3.30;87.82;101326.48;452119;117;922751;-73
2022/01/24 01:26:57;;;;;;;6.44;5.84;;;;;;;-3.31;87.80;101322.14;452074;116;922615;-73
2022/01/24 01:27:56;;;;;;;6.38;5.78;;;;;;;-3.29;87.77;101317.53;449617;116;923052;-73
2022/01/24 01:29:08;;;;;;;6.38;5.78;;;;;;;-3.29;87.82;101322.87;447701;117;922729;-73
2022/01/24 01:30:16;;;;;;;6.44;5.88;;;;;;;-3.29;87.83;101318.39;441451;117;930738;-73
2022/01/24 01:31:24;;;;;;;6.46;5.49;;;;;;;-3.26;87.93;101323.52;459392;114;922715;-72
2022/01/24 01:32:37;;;;;;;5.78;5.28;;;;;;;-3.22;88.04;101318.81;453240;115;922627;-72
2022/01/24 01:36:11;;;;;;;5.89;5.39;;;;;;;-3.12;87.96;101318.05;455967;114;922607;-73
2022/01/24 01:40:09;;;;;;;6.00;5.42;;;;;;;-3.16;87.93;101316.57;454576;115;922568;-73
2022/01/24 01:55:46;;;;;;;5.52;4.94;;;;;;;-3.22;88.35;101310.81;452078;116;922629;-73
2022/01/24 01:56:49;;;;;;;4.72;4.25;;;;;;;-3.22;88.38;101309.00;456568;114;922655;-72
2022/01/24 01:57:53;;;;;;;5.34;4.84;;;;;;;-3.19;88.40;101306.10;456026;114;922613;-72
2022/01/24 01:58:56;;;;;;;5.33;4.48;;;;;;;-3.16;88.32;101310.38;456936;115;922659;-72
2022/01/24 01:59:59;;;;;;;5.34;4.83;;;;;;;-3.15;88.33;101312.95;457105;115;923120;-73
2022/01/24 02:01:04;;;;;;;5.81;5.26;;;;;;;-3.11;88.38;101318.91;456215;115;922967;-73
2022/01/24 02:02:07;;;;;;;7.24;5.51;;;;;;;-3.12;88.21;101315.38;457138;115;922764;-72
2022/01/24 02:03:11;;;;;;;5.67;5.08;;;;;;;-3.11;88.11;101310.91;458522;114;922550;-72
2022/01/24 02:04:15;;;;;;;6.96;5.35;;;;;;;-3.12;88.02;101319.86;458849;115;928128;-73
2022/01/24 02:05:18;;;;;;;8.18;5.56;;;;;;;-3.13;87.92;101318.15;456284;114;922591;-72
2022/01/24 02:06:22;;;;;;;6.37;4.83;;;;;;;-3.14;87.95;101305.80;452852;114;923391;-72
2022/01/24 02:07:26;;;;;;;5.04;4.49;;;;;;;-3.11;88.03;101321.57;451847;115;922921;-72
2022/01/24 02:08:31;;;;;;;4.00;3.60;;;;;;;-3.09;87.99;101309.81;451661;115;923003;-72
2022/01/24 02:09:34;;;;;;;4.93;3.93;;;;;;;-3.09;87.99;101315.15;453401;114;922768;-72
2022/01/24 02:10:40;;;;;;;6.96;4.81;;;;;;;-3.09;87.95;101309.81;455437;115;922671;-72
2022/01/24 02:11:43;;;;;;;8.17;4.96;;;;;;;-3.08;87.93;101316.86;457865;114;922624;-72
2022/01/24 02:12:47;;;;;;;5.67;4.41;;;;;;;-3.07;87.98;101321.23;458437;113;922552;-73
2022/01/24 02:13:50;;;;;;;5.86;4.46;;;;;;;-3.05;87.98;101319.33;459232;113;922667;-73
2022/01/24 02:14:58;;;;;;;7.35;4.97;;;;;;;-3.03;88.02;101317.38;457805;113;930503;-71
2022/01/24 02:16:09;;;;;;;9.08;6.50;;;;;;;-3.02;87.96;101316.42;458768;114;922861;-73
2022/01/24 02:17:09;;;;;;;10.08;6.96;;;;;;;-3.00;87.91;101318.99;457715;113;922548;-73
2022/01/24 02:18:28;;;;;;;10.87;6.65;;;;;;;-3.03;87.79;101317.38;459585;113;922646;-73
2022/01/24 02:19:35;;;;;;;7.84;5.37;;;;;;;-3.04;87.73;101313.03;457100;114;922646;-73
2022/01/24 02:20:42;;;;;;;7.72;4.78;;;;;;;-3.04;87.71;101320.18;459305;114;922651;-73
2022/01/24 02:22:07;;;;;;;13.24;6.36;;;;;;;-3.05;87.72;101315.80;459378;113;922522;-72
2022/01/24 02:23:13;;;;;;;10.35;6.93;;;;;;;-3.08;87.72;101316.86;456975;114;922518;-73
2022/01/24 02:23:58;;;;;;;6.79;5.38;;;;;;;-3.08;87.70;101316.86;458989;114;922583;-73
2022/01/24 02:25:07;;;;;;;6.67;5.12;;;;;;;-3.09;87.69;101314.33;462100;113;922702;-73
2022/01/24 02:26:10;;;;;;;5.31;4.50;;;;;;;-3.07;87.75;101323.05;455709;115;923117;-72
2022/01/24 02:27:12;;;;;;;4.85;4.18;;;;;;;-3.06;87.76;101325.61;455274;115;922632;-72
2022/01/24 02:28:18;;;;;;;5.84;4.07;;;;;;;-3.06;87.76;101319.42;461427;114;922625;-71
2022/01/24 02:32:03;;;;;;;3.82;3.21;;;;;;;-3.06;87.73;101317.61;452528;116;922805;-72
2022/01/24 02:33:08;;;;;;;3.64;3.29;;;;;;;-3.05;87.85;101316.66;451266;116;922947;-72
2022/01/24 02:34:30;;;;;;;3.60;3.26;;;;;;;-3.03;87.92;101317.38;455008;115;930541;-73
2022/01/24 02:35:33;;;;;;;4.03;3.63;;;;;;;-3.02;87.92;101315.57;448892;116;922530;-73
2022/01/24 02:36:36;;;;;;;3.42;2.89;;;;;;;-2.99;88.01;101316.22;457806;114;922749;-73
2022/01/24 02:37:39;;;;;;;3.05;2.79;;;;;;;-2.95;88.11;101317.70;449004;115;922579;-73
2022/01/24 02:38:56;;;;;;;3.81;3.51;;;;;;;-2.92;88.12;101329.13;457413;114;922579;-72
2022/01/24 02:49:13;;;;;;;3.61;3.27;;;;;;;-3.04;87.81;101328.19;457145;115;922644;-73
2022/01/24 02:50:49;;;;;;;3.51;3.16;;;;;;;-3.09;87.75;101335.66;452121;115;922560;-73
2022/01/24 02:52:29;;;;;;;3.63;3.33;;;;;;;-3.13;87.73;101340.34;450734;114;930614;-72
2022/01/24 02:52:42;;;;;;;3.53;3.23;;;;;;;-3.15;87.71;101334.28;441454;115;922948;-73
2022/01/24 02:53:46;;;;;;;6.69;3.05;;;;;;;-3.17;87.76;101341.53;453519;115;922479;-73
2022/01/24 02:54:49;;;;;;;3.43;3.13;;;;;;;-3.16;87.78;101345.05;454471;115;922455;-73
2022/01/24 02:55:52;;;;;;;3.25;2.95;;;;;;;-3.15;87.79;101344.95;454297;114;922604;-73
2022/01/24 02:56:55;;;;;;;3.60;3.30;;;;;;;-3.15;87.78;101344.09;454158;115;923095;-73
2022/01/24 02:57:58;;;;;;;3.89;3.54;;;;;;;-3.14;87.69;101348.48;455404;115;922620;-73
2022/01/24 02:59:01;;;;;;;3.80;3.36;;;;;;;-3.15;87.64;101333.43;449829;115;922975;-73
2022/01/24 03:00:06;;;;;;;3.28;2.98;;;;;;;-3.17;87.61;101338.86;451874;115;922622;-72
2022/01/24 03:01:09;;;;;;;3.87;3.55;;;;;;;-3.16;87.62;101345.05;451441;116;922676;-73
2022/01/24 03:02:12;;;;;;;3.36;3.06;;;;;;;-3.14;87.62;101343.14;452707;116;922556;-73
2022/01/24 03:03:16;;;;;;;4.04;3.64;;;;;;;-3.15;87.60;101342.28;457502;114;922617;-72
2022/01/24 03:04:20;;;;;;;3.78;3.05;;;;;;;-3.14;87.57;101345.81;455888;114;930763;-73
2022/01/24 03:05:23;;;;;;;3.31;2.90;;;;;;;-3.14;87.60;101338.63;450743;116;922584;-72
2022/01/24 03:06:27;;;;;;;3.52;3.22;;;;;;;-3.12;87.63;101347.39;456988;114;923496;-72
2022/01/24 03:07:31;;;;;;;3.42;3.12;;;;;;;-3.10;87.68;101349.95;455681;114;922514;-72
2022/01/24 03:08:37;;;;;;;3.71;2.85;;;;;;;-3.09;87.65;101347.16;455301;114;922734;-73
2022/01/24 03:09:41;;;;;;;3.33;3.03;;;;;;;-3.10;87.53;101353.48;453236;116;930554;-72
2022/01/24 03:10:47;;;;;;;3.61;3.31;;;;;;;-3.12;87.42;101351.87;455866;114;922912;-73
2022/01/24 03:12:13;;;;;;;4.72;4.24;;;;;;;-3.16;87.40;101351.24;451757;115;922532;-73
2022/01/24 03:14:24;;;;;;;6.47;4.58;;;;;;;-3.17;87.40;101356.67;452871;116;922665;-72
2022/01/24 03:15:27;;;;;;;7.09;4.84;;;;;;;-3.19;87.45;101359.44;457645;114;922618;-73
2022/01/24 03:16:30;;;;;;;5.97;4.48;;;;;;;-3.18;87.43;101362.97;456529;114;923118;-71
2022/01/24 03:17:34;;;;;;;5.34;3.93;;;;;;;-3.19;87.45;101366.59;452475;115;922635;-72
2022/01/24 03:18:37;;;;;;;5.17;4.15;;;;;;;-3.20;87.36;101362.24;447720;116;922874;-72
2022/01/24 03:19:40;;;;;;;5.68;4.05;;;;;;;-3.22;87.34;101359.67;455912;114;922530;-72
2022/01/24 03:20:44;;;;;;;7.52;4.73;;;;;;;-3.23;87.31;101365.95;455801;115;923745;-72
2022/01/24 03:21:47;;;;;;;9.61;6.38;;;;;;;-3.24;87.34;101366.91;456756;114;922812;-72
2022/01/24 03:22:50;;;;;;;9.32;5.67;;;;;;;-3.23;87.42;101363.30;457187;113;923136;-74
2022/01/24 03:23:53;;;;;;;6.73;4.96;;;;;;;-3.21;87.45;101356.05;457978;113;930633;-72
2022/01/24 03:24:56;;;;;;;4.14;3.49;;;;;;;-3.19;87.46;101359.44;458180;113;923069;-72
2022/01/24 03:25:59;;;;;;;5.26;3.82;;;;;;;-3.20;87.38;101360.42;459550;114;922564;-72
2022/01/24 03:27:03;;;;;;;5.67;4.46;;;;;;;-3.19;87.42;101359.44;459510;114;923169;-72
2022/01/24 03:28:06;;;;;;;5.90;3.98;;;;;;;-3.17;87.44;101370.02;459675;114;922942;-73
2022/01/24 03:29:10;;;;;;;5.24;4.30;;;;;;;-3.17;87.44;101360.20;458980;114;930563;-73
2022/01/24 03:30:14;;;;;;;5.85;4.63;;;;;;;-3.16;87.38;101367.25;459944;114;930632;-72
2022/01/24 03:31:18;;;;;;;6.61;5.02;;;;;;;-3.15;87.46;101360.10;452578;115;923472;-72
2022/01/24 03:32:21;;;;;;;6.37;5.24;;;;;;;-3.13;87.47;101368.83;455619;115;922907;-73
2022/01/24 03:33:24;;;;;;;5.52;4.41;;;;;;;-3.13;87.47;101361.68;459572;114;922754;-72
2022/01/24 03:34:27;;;;;;;6.74;5.94;;;;;;;-3.12;87.43;101358.06;460448;114;930435;-71
2022/01/24 03:35:31;;;;;;;8.28;7.33;;;;;;;-3.10;87.50;101358.81;460947;113;922680;-72
2022/01/24 03:36:34;;;;;;;5.86;5.02;;;;;;;-3.06;87.53;101365.63;460864;113;922516;-71
2022/01/24 03:37:37;;;;;;;5.87;4.91;;;;;;;-3.04;87.60;101366.39;461432;114;922469;-72
2022/01/24 03:38:41;;;;;;;5.16;4.64;;;;;;;-3.03;87.59;101357.39;462669;114;922484;-72
2022/01/24 03:39:44;;;;;;;6.01;4.86;;;;;;;-3.01;87.63;101355.48;461906;114;922569;-72
2022/01/24 03:40:47;;;;;;;4.53;4.13;;;;;;;-2.98;87.63;101365.09;459342;113;922605;-71
2022/01/24 03:41:50;;;;;;;4.67;4.19;;;;;;;-2.94;87.67;101361.24;455488;113;922500;-72
2022/01/24 03:42:53;;;;;;;3.96;3.58;;;;;;;-2.92;87.65;101366.48;457189;114;922558;-72
2022/01/24 03:44:02;;;;;;;4.64;3.36;;;;;;;-2.91;87.62;101365.48;454558;115;923064;-72
2022/01/24 03:45:04;;;;;;;3.15;2.88;;;;;;;-2.91;87.60;101368.16;451259;116;922678;-71
2022/01/24 03:47:42;;;;;;;3.59;3.29;;;;;;;-2.89;87.66;101361.77;451248;115;923353;-74
2022/01/24 03:48:46;;;;;;;2.93;2.64;;;;;;;-2.87;87.68;101362.52;451935;115;923386;-72
2022/01/24 03:49:49;;;;;;;3.61;3.31;;;;;;;-2.84;87.76;101358.76;455153;116;922686;-72
2022/01/24 03:50:54;;;;;;;3.16;2.76;;;;;;;-2.81;87.77;101361.23;455039;114;922598;-72
2022/01/24 03:51:57;;;;;;;3.31;3.02;;;;;;;-2.80;87.75;101358.42;454740;115;930420;-72
2022/01/24 03:53:00;;;;;;;3.23;2.93;;;;;;;-2.78;87.75;101360.99;459658;114;922550;-73
2022/01/24 03:54:03;;;;;;;3.06;2.86;;;;;;;-2.79;87.71;101368.14;459350;114;922489;-73
2022/01/24 03:55:06;;;;;;;4.34;3.98;;;;;;;-2.81;87.60;101362.05;459459;114;922634;-72
2022/01/24 03:56:11;;;;;;;3.26;2.98;;;;;;;-2.85;87.51;101365.05;459895;114;923174;-72
2022/01/24 03:57:16;;;;;;;2.77;2.57;;;;;;;-2.85;87.55;101355.23;460222;113;922760;-73
2022/01/24 03:58:19;;;;;;;3.48;3.18;;;;;;;-2.85;87.58;101375.73;460885;113;922661;-72
2022/01/24 03:59:22;;;;;;;3.19;2.89;;;;;;;-2.86;87.60;101358.86;460752;113;922649;-72
2022/01/24 04:00:25;;;;;;;3.22;2.87;;;;;;;-2.86;87.59;101366.87;461287;114;922662;-74
2022/01/24 04:01:28;;;;;;;3.51;2.74;;;;;;;-2.87;87.54;101364.33;461542;113;922548;-72
2022/01/24 04:02:32;;;;;;;4.05;3.36;;;;;;;-2.90;87.47;101362.72;462457;113;922527;-73
2022/01/24 04:03:37;;;;;;;3.18;2.92;;;;;;;-2.93;87.42;101362.95;461560;114;922594;-72
2022/01/24 04:04:40;;;;;;;3.16;2.46;;;;;;;-2.93;87.44;101373.63;458732;113;930501;-73
2022/01/24 04:05:43;;;;;;;3.12;2.34;;;;;;;-2.95;87.44;101370.20;457366;114;922575;-72
2022/01/24 04:06:48;;;;;;;2.96;2.73;;;;;;;-2.97;87.44;101375.64;455368;114;922817;-72
2022/01/24 04:07:51;;;;;;;2.64;2.44;;;;;;;-2.99;87.39;101380.25;458458;114;922793;-72
2022/01/24 04:08:54;;;;;;;2.49;2.29;;;;;;;-2.99;87.37;101379.39;456331;114;922628;-72
2022/01/24 04:10:04;;;;;;;2.85;2.65;;;;;;;-3.03;87.29;101372.55;458075;114;923352;-72
2022/01/24 04:11:09;;;;;;;3.03;2.76;;;;;;;-3.06;87.29;101386.97;457584;115;922660;-72
2022/01/24 04:12:10;;;;;;;3.26;2.96;;;;;;;-3.07;87.33;101379.06;454006;115;922678;-73
2022/01/24 04:13:36;;;;;;;2.90;2.67;;;;;;;-3.07;87.37;101387.92;456065;114;922524;-71
2022/01/24 04:15:57;;;;;;;2.67;2.47;;;;;;;-3.02;87.51;101395.59;458987;113;922850;-72
2022/01/24 04:17:04;;;;;;;3.55;3.04;;;;;;;-3.02;87.50;101395.59;457272;114;922660;-72
2022/01/24 04:18:26;;;;;;;4.48;3.91;;;;;;;-3.03;87.44;101388.55;456815;114;923201;-71
2022/01/24 04:21:18;;;;;;;8.02;5.41;;;;;;;-3.04;87.42;101387.73;457462;113;922736;-73
2022/01/24 04:21:47;;;;;;;5.91;4.82;;;;;;;-3.03;87.47;101381.41;459752;113;922655;-72
2022/01/24 04:22:50;;;;;;;6.26;4.96;;;;;;;-3.02;87.46;101385.78;451670;116;922991;-73
2022/01/24 04:24:05;;;;;;;7.74;6.24;;;;;;;-3.03;87.35;101383.22;461004;114;922545;-73
2022/01/24 04:25:13;;;;;;;7.87;6.86;;;;;;;-3.04;87.31;101397.55;455502;115;922691;-71
2022/01/24 04:26:11;;;;;;;7.25;6.52;;;;;;;-3.08;87.29;101388.02;454856;115;922658;-74
2022/01/24 04:27:15;;;;;;;7.10;6.33;;;;;;;-3.06;87.40;101392.30;454454;116;922496;-74
2022/01/24 04:28:18;;;;;;;5.75;5.22;;;;;;;-3.03;87.48;101392.08;457520;114;922479;-73
2022/01/24 04:29:22;;;;;;;5.26;4.59;;;;;;;-3.00;87.58;101394.55;452459;114;922891;-73
2022/01/24 04:30:26;;;;;;;3.62;3.32;;;;;;;-2.97;87.61;101396.98;450892;114;930528;-73
2022/01/24 04:31:30;;;;;;;3.52;3.22;;;;;;;-2.97;87.52;101391.64;455667;116;922523;-74
2022/01/24 04:32:34;;;;;;;4.25;3.76;;;;;;;-2.98;87.45;101399.78;457781;113;923139;-73
2022/01/24 04:33:37;;;;;;;3.73;3.43;;;;;;;-2.99;87.41;101400.73;458425;114;923058;-72
2022/01/24 04:34:40;;;;;;;3.77;3.36;;;;;;;-3.02;87.37;101396.45;451749;114;922555;-72
2022/01/24 04:35:43;;;;;;;3.86;3.21;;;;;;;-3.02;87.38;101404.45;456343;115;922604;-72
2022/01/24 04:36:46;;;;;;;3.95;3.37;;;;;;;-3.01;87.39;101403.50;455483;114;922744;-72
2022/01/24 04:37:49;;;;;;;2.77;2.56;;;;;;;-2.99;87.42;101401.59;454951;116;923566;-72
2022/01/24 04:38:52;;;;;;;3.09;2.79;;;;;;;-3.00;87.37;101405.22;444182;117;922815;-72
2022/01/24 04:39:56;;;;;;;3.18;2.88;;;;;;;-3.00;87.34;101404.36;461277;111;922734;-72
2022/01/24 04:41:04;;;;;;;3.02;2.78;;;;;;;-3.00;87.33;101404.36;471442;111;923064;-73
2022/01/24 04:47:22;;;;;;;2.87;2.41;;;;;;;-3.13;87.01;101406.16;472105;111;923123;-72
2022/01/24 04:51:13;;;;;;;3.09;2.78;;;;;;;-3.15;86.95;101424.11;471545;111;922555;-74
2022/01/24 04:54:26;;;;;;;2.93;2.73;;;;;;;-3.23;86.88;101424.63;472270;111;922978;-71
2022/01/24 04:54:43;;;;;;;6.04;2.86;;;;;;;-3.27;86.89;101438.28;459106;111;923121;-73
2022/01/24 04:55:46;;;;;;;2.64;2.41;;;;;;;-3.30;86.92;101447.34;471283;111;922726;-73
2022/01/24 04:56:49;;;;;;;3.52;2.79;;;;;;;-3.31;86.95;101439.47;474012;110;922636;-73
2022/01/24 04:57:52;;;;;;;3.03;2.73;;;;;;;-3.33;87.02;101447.56;472451;111;922540;-73
2022/01/24 04:58:56;;;;;;;3.10;2.66;;;;;;;-3.32;87.04;101449.27;472940;111;922589;-73
2022/01/24 05:00:01;;;;;;;3.22;2.54;;;;;;;-3.32;87.08;101438.61;473706;111;922592;-72
2022/01/24 05:01:05;;;;;;;3.27;2.97;;;;;;;-3.31;87.08;101450.13;465172;112;923087;-73
2022/01/24 05:02:08;;;;;;;2.99;2.61;;;;;;;-3.29;87.16;101450.86;466486;111;922537;-70
2022/01/24 05:03:11;;;;;;;3.47;3.17;;;;;;;-3.26;87.23;101442.66;472051;111;922609;-72
2022/01/24 05:04:15;;;;;;;2.92;2.61;;;;;;;-3.25;87.20;101444.38;472307;111;930687;-73
2022/01/24 05:05:20;;;;;;;3.24;2.84;;;;;;;-3.24;87.16;101446.06;472602;111;922593;-71
2022/01/24 05:06:23;;;;;;;4.54;2.92;;;;;;;-3.24;87.10;101457.58;473016;111;923365;-72
2022/01/24 05:07:26;;;;;;;4.31;3.01;;;;;;;-3.22;87.16;101447.67;472319;111;922617;-73
2022/01/24 05:08:30;;;;;;;4.29;3.22;;;;;;;-3.19;87.24;101451.93;472520;111;922932;-73
2022/01/24 05:10:00;;;;;;;4.21;3.81;;;;;;;-3.16;87.25;101457.07;473180;111;930560;-73
2022/01/24 05:10:56;;;;;;;4.98;4.48;;;;;;;-3.15;87.27;101454.30;467060;111;922590;-72
2022/01/24 05:11:55;;;;;;;4.48;3.77;;;;;;;-3.14;87.20;101457.83;472022;111;922590;-71
2022/01/24 05:21:32;;;;;;;3.21;2.90;;;;;;;-3.29;87.09;101469.52;471772;111;923321;-71
2022/01/24 05:23:36;;;;;;;3.58;3.19;;;;;;;-3.34;87.12;101471.66;472372;111;922292;-73
2022/01/24 05:24:39;;;;;;;3.48;2.96;;;;;;;-3.33;87.22;101470.70;472786;111;922579;-73
2022/01/24 05:25:42;;;;;;;4.89;2.77;;;;;;;-3.34;87.26;101468.98;471959;111;922976;-72
2022/01/24 05:26:45;;;;;;;4.85;3.79;;;;;;;-3.37;87.21;101475.40;472278;111;930680;-71
2022/01/24 05:27:48;;;;;;;3.91;3.44;;;;;;;-3.40;87.14;101488.91;472177;111;922705;-71
2022/01/24 05:28:51;;;;;;;5.06;3.49;;;;;;;-3.42;87.00;101482.86;473165;111;922686;-74
2022/01/24 05:29:55;;;;;;;3.92;3.62;;;;;;;-3.47;86.64;101484.95;472434;111;922597;-72
2022/01/24 05:30:59;;;;;;;4.35;3.98;;;;;;;-3.54;86.57;101476.53;472494;111;922825;-72
2022/01/24 05:32:03;;;;;;;4.99;3.75;;;;;;;-3.60;86.39;101492.07;472170;111;922992;-73
2022/01/24 05:33:06;;;;;;;3.52;3.22;;;;;;;-3.66;86.50;101487.14;472870;111;923312;-69
2022/01/24 05:34:09;;;;;;;4.06;3.66;;;;;;;-3.69;86.47;101487.36;472885;111;922933;-73
2022/01/24 05:35:13;;;;;;;4.42;4.01;;;;;;;-3.73;86.63;101489.36;472448;111;922771;-73
2022/01/24 05:36:18;;;;;;;4.46;3.83;;;;;;;-3.74;86.57;101486.78;471987;111;922510;-72
2022/01/24 05:37:21;;;;;;;4.21;3.81;;;;;;;-3.75;86.67;101488.63;473174;111;922637;-74
2022/01/24 05:38:25;;;;;;;4.65;4.20;;;;;;;-3.75;86.68;101488.63;471567;111;923100;-72
2022/01/24 05:39:28;;;;;;;4.94;4.51;;;;;;;-3.73;86.67;101491.16;472393;111;922869;-73
2022/01/24 05:40:31;;;;;;;4.70;4.27;;;;;;;-3.72;86.70;101501.73;471321;111;922567;-73
2022/01/24 05:41:37;;;;;;;5.21;4.71;;;;;;;-3.72;86.79;101488.41;473314;111;922684;-72
2022/01/24 05:42:40;;;;;;;5.60;5.05;;;;;;;-3.72;86.79;101488.41;473864;111;930546;-72
2022/01/24 05:43:43;;;;;;;5.38;4.90;;;;;;;-3.68;86.82;101483.72;472362;111;922608;-73
2022/01/24 05:44:49;;;;;;;6.29;5.36;;;;;;;-3.65;86.89;101487.05;472137;111;922533;-71
2022/01/24 05:45:52;;;;;;;5.14;4.63;;;;;;;-3.62;86.84;101499.30;472658;111;930452;-73
2022/01/24 05:46:55;;;;;;;6.22;5.58;;;;;;;-3.62;86.73;101499.30;471670;111;922510;-73
2022/01/24 05:47:58;;;;;;;5.92;5.39;;;;;;;-3.63;86.69;101494.92;472927;111;922679;-72
2022/01/24 05:49:02;;;;;;;6.59;5.99;;;;;;;-3.63;86.74;101494.92;472482;110;923353;-72
2022/01/24 05:50:07;;;;;;;6.44;5.84;;;;;;;-3.61;86.75;101498.35;472133;111;922717;-73
2022/01/24 05:51:10;;;;;;;6.59;5.94;;;;;;;-3.58;86.87;101499.00;472271;111;923010;-73
2022/01/24 05:52:13;;;;;;;6.57;5.96;;;;;;;-3.54;86.95;101499.66;472957;111;923058;-74
2022/01/24 05:53:17;;;;;;;6.05;5.47;;;;;;;-3.50;87.00;101503.83;472723;111;923328;-73
2022/01/24 05:54:22;;;;;;;6.06;5.49;;;;;;;-3.48;87.01;101499.26;470713;111;922777;-73
2022/01/24 05:55:26;;;;;;;6.99;6.29;;;;;;;-3.46;86.89;101506.18;472035;111;922904;-72
2022/01/24 05:56:29;;;;;;;6.34;5.84;;;;;;;-3.47;86.83;101507.13;471786;111;923105;-72
2022/01/24 05:57:33;;;;;;;6.71;6.11;;;;;;;-3.49;86.73;101497.55;471382;111;922449;-73
2022/01/24 05:58:36;;;;;;;6.44;5.83;;;;;;;-3.49;86.79;101498.41;471827;111;922578;-72
2022/01/24 05:59:39;;;;;;;6.21;5.63;;;;;;;-3.49;86.84;101505.55;465408;114;922747;-72
2022/01/24 06:00:42;;;;;;;6.11;5.59;;;;;;;-3.48;86.92;101502.78;465631;111;923083;-73
2022/01/24 06:01:45;;;;;;;6.05;5.47;;;;;;;-3.46;86.97;101502.66;471977;111;923432;-72
2022/01/24 06:02:49;;;;;;;5.99;5.40;;;;;;;-3.43;87.02;101505.13;463041;113;923318;-73
2022/01/24 06:03:52;;;;;;;5.94;5.36;;;;;;;-3.40;87.09;101502.25;464286;111;922797;-73
2022/01/24 06:04:55;;;;;;;6.42;5.84;;;;;;;-3.32;87.20;101507.08;472430;111;922540;-73
2022/01/24 06:05:58;;;;;;;6.22;5.62;;;;;;;-3.26;87.29;101512.86;471966;111;922614;-73
2022/01/24 06:07:02;;;;;;;5.97;5.37;;;;;;;-3.22;87.37;101522.34;472946;111;922753;-73
2022/01/24 06:08:05;;;;;;;5.75;5.21;;;;;;;-3.18;87.36;101507.84;472463;111;923079;-72
2022/01/24 06:09:08;;;;;;;5.50;5.03;;;;;;;-3.15;87.33;101506.80;472678;111;922949;-73
2022/01/24 06:10:12;;;;;;;5.44;4.83;;;;;;;-3.14;87.32;101512.00;471972;111;922538;-73
2022/01/24 06:11:15;;;;;;;5.70;5.19;;;;;;;-3.10;87.36;101510.00;472163;111;930753;-73
2022/01/24 06:12:18;;;;;;;5.97;5.32;;;;;;;-3.08;87.38;101508.91;473188;111;923278;-73
2022/01/24 06:13:21;;;;;;;5.71;5.21;;;;;;;-3.05;87.35;101514.06;472669;111;922666;-73
2022/01/24 06:14:24;;;;;;;5.86;4.89;;;;;;;-3.05;87.30;101511.39;472633;111;922627;-73
2022/01/24 06:15:27;;;;;;;6.76;6.18;;;;;;;-3.05;87.27;101518.54;473169;111;922602;-74
2022/01/24 06:16:31;;;;;;;7.29;5.53;;;;;;;-3.06;87.20;101516.83;472438;111;922558;-74
2022/01/24 06:17:34;;;;;;;7.01;6.31;;;;;;;-3.06;87.21;101517.68;472316;111;922570;-73
2022/01/24 06:18:37;;;;;;;7.82;7.09;;;;;;;-3.07;87.22;101512.44;472825;111;930556;-73
2022/01/24 06:19:40;;;;;;;7.67;6.97;;;;;;;-3.05;87.28;101511.39;472311;111;922627;-73
2022/01/24 06:20:44;;;;;;;6.95;6.39;;;;;;;-3.02;87.32;101515.64;472289;111;922777;-74
2022/01/24 06:21:48;;;;;;;5.45;5.03;;;;;;;-3.01;87.31;101523.55;472794;111;922553;-74
2022/01/24 06:22:51;;;;;;;6.13;5.14;;;;;;;-3.02;87.25;101516.50;471251;111;922644;-74